createdAt,value
2023-05-19T00:00:03.726Z,15.50
2023-05-19T00:03:00.628Z,21.20
2023-05-19T00:05:31.149Z,16.90
2023-05-19T00:08:02.519Z,19.40
2023-05-19T00:10:33.250Z,15.20
2023-05-19T00:13:02.090Z,17.00
2023-05-19T00:15:30.995Z,15.90
2023-05-19T00:17:59.468Z,12.00
2023-05-19T00:20:27.801Z,13.60
2023-05-19T00:22:56.232Z,14.30
2023-05-19T00:25:25.038Z,15.90
2023-05-19T00:27:53.340Z,13.40
2023-05-19T00:30:23.053Z,11.50
2023-05-19T00:32:51.864Z,13.50
2023-05-19T00:35:20.342Z,15.30
2023-05-19T00:37:48.948Z,16.20
2023-05-19T00:40:17.683Z,12.50
2023-05-19T00:42:46.005Z,19.20
2023-05-19T00:45:14.294Z,20.40
2023-05-19T00:47:42.938Z,23.20
2023-05-19T00:50:11.263Z,20.80
2023-05-19T00:52:39.700Z,18.00
2023-05-19T00:55:09.132Z,21.10
2023-05-19T00:57:38.730Z,17.60
2023-05-19T01:00:08.190Z,18.20
2023-05-19T01:02:40.183Z,16.80
2023-05-19T01:05:10.431Z,15.20
2023-05-19T01:07:38.901Z,15.40
2023-05-19T01:10:08.110Z,15.10
2023-05-19T01:12:36.831Z,14.60
2023-05-19T01:15:05.765Z,12.50
2023-05-19T01:18:08.207Z,16.40
2023-05-19T01:20:42.828Z,17.10
2023-05-19T01:23:40.294Z,15.80
2023-05-19T01:26:14.752Z,14.40
2023-05-19T01:29:07.336Z,17.60
2023-05-19T01:31:38.884Z,11.20
2023-05-19T01:34:10.774Z,17.00
2023-05-19T01:36:44.984Z,16.90
2023-05-19T01:39:14.453Z,16.20
2023-05-19T01:41:45.929Z,19.30
2023-05-19T01:44:16.178Z,17.40
2023-05-19T01:46:45.911Z,18.20
2023-05-19T01:49:14.564Z,15.90
2023-05-19T01:51:43.186Z,17.60
2023-05-19T01:54:11.504Z,19.70
2023-05-19T01:56:48.807Z,16.50
2023-05-19T01:59:24.291Z,16.90
2023-05-19T02:01:55.960Z,18.40
2023-05-19T02:04:46.371Z,18.20
2023-05-19T02:07:33.124Z,17.80
2023-05-19T02:10:10.410Z,17.80
2023-05-19T02:12:40.903Z,16.30
2023-05-19T02:15:27.067Z,17.60
2023-05-19T02:17:58.186Z,17.00
2023-05-19T02:20:26.531Z,18.80
2023-05-19T02:22:54.871Z,20.70
2023-05-19T02:25:24.363Z,17.80
2023-05-19T02:27:52.958Z,20.30
2023-05-19T02:30:21.305Z,17.80
2023-05-19T02:32:49.801Z,21.40
2023-05-19T02:35:19.055Z,19.60
2023-05-19T02:37:47.293Z,16.60
2023-05-19T02:40:16.296Z,18.90
2023-05-19T02:42:45.611Z,17.80
2023-05-19T02:45:14.349Z,21.70
2023-05-19T02:47:42.790Z,22.30
2023-05-19T02:50:11.196Z,22.60
2023-05-19T02:52:39.492Z,20.80
2023-05-19T02:55:08.329Z,22.40
2023-05-19T02:57:36.689Z,23.70
2023-05-19T03:00:05.965Z,24.90
2023-05-19T03:02:35.530Z,20.80
2023-05-19T03:05:04.441Z,23.40
2023-05-19T03:07:33.879Z,23.10
2023-05-19T03:10:06.813Z,24.10
2023-05-19T03:12:35.316Z,23.90
2023-05-19T03:15:03.864Z,22.00
2023-05-19T03:17:34.432Z,24.70
2023-05-19T03:20:03.241Z,32.60
2023-05-19T03:22:33.613Z,24.50
2023-05-19T03:25:02.595Z,28.30
2023-05-19T03:27:32.579Z,27.10
2023-05-19T03:30:06.645Z,24.20
2023-05-19T03:32:39.297Z,28.50
2023-05-19T03:35:07.978Z,27.50
2023-05-19T03:37:36.497Z,27.50
2023-05-19T03:40:08.851Z,35.00
2023-05-19T03:42:38.629Z,43.00
2023-05-19T03:45:07.927Z,37.20
2023-05-19T03:47:36.258Z,36.30
2023-05-19T03:50:24.280Z,31.00
2023-05-19T03:52:58.364Z,31.50
2023-05-19T03:55:32.198Z,30.60
2023-05-19T03:58:01.773Z,38.20
2023-05-19T04:00:34.030Z,35.20
2023-05-19T04:03:03.184Z,36.90
2023-05-19T04:05:52.365Z,36.10
2023-05-19T04:08:40.903Z,36.50
2023-05-19T04:11:09.539Z,41.90
2023-05-19T04:13:38.061Z,38.80
2023-05-19T04:16:07.157Z,36.80
2023-05-19T04:18:35.763Z,35.80
2023-05-19T04:21:08.740Z,36.40
2023-05-19T04:23:37.215Z,35.00
2023-05-19T04:26:07.788Z,36.30
2023-05-19T04:28:39.273Z,32.90
2023-05-19T04:31:11.101Z,32.30
2023-05-19T04:33:41.715Z,36.50
2023-05-19T04:36:11.580Z,37.80
2023-05-19T04:38:40.815Z,33.10
2023-05-19T04:41:10.687Z,38.00
2023-05-19T04:43:42.073Z,32.20
2023-05-19T04:46:13.742Z,32.10
2023-05-19T04:48:45.246Z,32.70
2023-05-19T04:51:14.482Z,33.70
2023-05-19T04:53:43.779Z,34.50
2023-05-19T04:56:16.182Z,32.90
2023-05-19T04:58:47.108Z,31.40
2023-05-19T05:01:16.367Z,32.40
2023-05-19T05:03:45.087Z,30.00
2023-05-19T05:06:13.649Z,30.00
2023-05-19T05:08:46.140Z,31.90
2023-05-19T05:11:16.135Z,27.90
2023-05-19T05:13:45.275Z,27.70
2023-05-19T05:16:15.354Z,28.50
2023-05-19T05:19:11.326Z,33.70
2023-05-19T05:21:40.171Z,34.20
2023-05-19T05:24:09.836Z,31.10
2023-05-19T05:26:39.091Z,29.50
2023-05-19T05:29:14.772Z,29.70
2023-05-19T05:31:43.287Z,24.10
2023-05-19T05:34:12.808Z,27.40
2023-05-19T05:36:41.943Z,28.30
2023-05-19T05:39:11.651Z,26.90
2023-05-19T05:41:41.760Z,26.10
2023-05-19T05:44:12.920Z,23.20
2023-05-19T05:46:43.381Z,25.50
2023-05-19T05:49:13.677Z,25.00
2023-05-19T05:51:54.283Z,27.50
2023-05-19T05:54:41.642Z,30.00
2023-05-19T05:57:11.444Z,26.70
2023-05-19T05:59:40.819Z,29.20
2023-05-19T06:02:09.567Z,27.50
2023-05-19T06:04:40.823Z,25.60
2023-05-19T06:07:12.552Z,26.90
2023-05-19T06:09:41.606Z,23.60
2023-05-19T06:12:16.808Z,26.20
2023-05-19T06:14:54.742Z,23.80
2023-05-19T06:17:42.417Z,24.00
2023-05-19T06:20:14.320Z,25.00
2023-05-19T06:22:45.079Z,23.50
2023-05-19T06:25:18.146Z,24.80
2023-05-19T06:27:47.175Z,29.50
2023-05-19T06:30:19.724Z,27.10
2023-05-19T06:33:15.546Z,27.90
2023-05-19T06:35:44.454Z,26.20
2023-05-19T06:38:16.152Z,32.00
2023-05-19T06:40:44.713Z,33.00
2023-05-19T06:43:13.481Z,32.40
2023-05-19T06:46:08.097Z,31.20
2023-05-19T06:48:49.032Z,31.60
2023-05-19T06:51:22.601Z,35.70
2023-05-19T06:53:54.850Z,42.30
2023-05-19T06:56:25.584Z,34.20
2023-05-19T06:58:57.264Z,30.90
2023-05-19T07:01:33.255Z,26.60
2023-05-19T07:04:02.217Z,34.80
2023-05-19T07:06:32.267Z,33.20
2023-05-19T07:09:06.650Z,41.20
2023-05-19T07:11:39.851Z,33.20
2023-05-19T07:14:21.158Z,30.20
2023-05-19T07:16:55.763Z,40.10
2023-05-19T07:19:30.030Z,40.70
2023-05-19T07:22:05.094Z,36.90
2023-05-19T07:24:41.737Z,36.30
2023-05-19T07:27:13.369Z,39.10
2023-05-19T07:29:42.075Z,50.80
2023-05-19T07:32:11.259Z,35.90
2023-05-19T07:34:41.038Z,33.60
2023-05-19T07:37:09.420Z,31.60
2023-05-19T07:39:38.994Z,33.00
2023-05-19T07:42:07.641Z,32.20
2023-05-19T07:44:36.574Z,25.80
2023-05-19T07:47:05.154Z,27.80
2023-05-19T07:49:33.756Z,29.60
2023-05-19T07:52:15.326Z,26.50
2023-05-19T07:54:46.515Z,25.50
2023-05-19T07:57:14.857Z,27.40
2023-05-19T07:59:48.570Z,27.90
2023-05-19T08:02:17.149Z,31.90
2023-05-19T08:04:49.606Z,26.50
2023-05-19T08:07:18.179Z,25.20
2023-05-19T08:09:47.594Z,24.10
2023-05-19T08:12:26.105Z,25.90
2023-05-19T08:14:55.514Z,24.60
2023-05-19T08:17:24.052Z,24.50
2023-05-19T08:19:56.415Z,26.50
2023-05-19T08:22:27.490Z,26.20
2023-05-19T08:25:04.525Z,28.00
2023-05-19T08:27:34.623Z,30.00
2023-05-19T08:30:05.266Z,27.20
2023-05-19T08:32:34.676Z,24.50
2023-05-19T08:35:03.400Z,29.00
2023-05-19T08:37:37.238Z,27.40
2023-05-19T08:40:16.302Z,22.60
2023-05-19T08:42:47.893Z,26.10
2023-05-19T08:45:20.077Z,22.20
2023-05-19T08:47:53.414Z,26.00
2023-05-19T08:50:32.153Z,30.50
2023-05-19T08:53:33.926Z,30.60
2023-05-19T08:56:20.385Z,28.70
2023-05-19T08:58:51.968Z,28.30
2023-05-19T09:01:22.746Z,28.30
2023-05-19T09:03:54.994Z,27.80
2023-05-19T09:06:24.255Z,30.00
2023-05-19T09:08:52.668Z,27.00
2023-05-19T09:11:23.967Z,27.70
2023-05-19T09:13:55.428Z,28.30
2023-05-19T09:16:25.511Z,30.60
2023-05-19T09:18:56.624Z,28.90
2023-05-19T09:21:35.148Z,27.90
2023-05-19T09:24:08.495Z,28.50
2023-05-19T09:26:41.571Z,30.30
2023-05-19T09:29:20.715Z,34.20
2023-05-19T09:31:52.229Z,27.70
2023-05-19T09:34:22.305Z,25.40
2023-05-19T09:36:52.118Z,26.30
2023-05-19T09:39:22.974Z,27.80
2023-05-19T09:41:56.223Z,25.10
2023-05-19T09:44:30.339Z,28.60
2023-05-19T09:46:58.933Z,28.40
2023-05-19T09:49:33.480Z,26.00
2023-05-19T09:52:08.015Z,25.30
2023-05-19T09:54:41.176Z,24.50
2023-05-19T09:57:09.560Z,28.50
2023-05-19T09:59:39.912Z,26.80
2023-05-19T10:02:16.864Z,23.70
2023-05-19T10:04:48.518Z,23.40
2023-05-19T10:07:17.934Z,24.30
2023-05-19T10:09:48.946Z,26.00
2023-05-19T10:12:20.098Z,26.60
2023-05-19T10:14:54.961Z,25.90
2023-05-19T10:17:25.437Z,26.00
2023-05-19T10:19:58.046Z,27.70
2023-05-19T10:22:26.699Z,25.30
2023-05-19T10:24:57.894Z,27.40
2023-05-19T10:27:37.191Z,24.60
2023-05-19T10:30:16.349Z,23.90
2023-05-19T10:32:48.695Z,25.70
2023-05-19T10:35:36.013Z,22.70
2023-05-19T10:38:24.206Z,23.40
2023-05-19T10:41:28.847Z,23.90
2023-05-19T10:44:36.261Z,21.00
2023-05-19T10:47:07.751Z,22.10
2023-05-19T10:49:36.875Z,21.20
2023-05-19T10:52:26.125Z,21.10
2023-05-19T10:54:55.054Z,19.20
2023-05-19T10:57:28.176Z,22.00
2023-05-19T10:59:57.517Z,19.40
2023-05-19T11:02:45.126Z,19.40
2023-05-19T11:05:20.511Z,21.20
2023-05-19T11:08:08.001Z,19.00
2023-05-19T11:10:38.693Z,20.80
2023-05-19T11:13:07.250Z,21.80
2023-05-19T11:15:39.457Z,21.10
2023-05-19T11:18:16.176Z,22.00
2023-05-19T11:20:56.058Z,23.00
2023-05-19T11:23:26.013Z,22.50
2023-05-19T11:25:54.485Z,23.20
2023-05-19T11:28:28.462Z,24.10
2023-05-19T11:30:59.407Z,22.90
2023-05-19T11:33:27.951Z,22.30
2023-05-19T11:36:00.205Z,23.30
2023-05-19T11:38:30.393Z,22.70
2023-05-19T11:41:05.396Z,21.90
2023-05-19T11:43:36.080Z,20.40
2023-05-19T11:46:25.771Z,28.50
2023-05-19T11:48:54.725Z,23.70
2023-05-19T11:51:26.599Z,21.10
2023-05-19T11:54:27.044Z,22.10
2023-05-19T11:57:14.799Z,19.80
2023-05-19T11:59:58.095Z,20.70
2023-05-19T12:02:33.495Z,20.80
2023-05-19T12:05:24.774Z,20.30
2023-05-19T12:08:00.290Z,20.50
2023-05-19T12:10:38.516Z,23.10
2023-05-19T12:13:14.766Z,20.80
2023-05-19T12:16:15.398Z,20.70
2023-05-19T12:21:48.188Z,22.00
2023-05-19T12:27:42.180Z,21.70
2023-05-19T12:30:31.037Z,24.00
2023-05-19T12:33:18.900Z,23.60
2023-05-19T12:36:00.845Z,21.50
2023-05-19T12:38:48.714Z,20.50
2023-05-19T12:41:34.033Z,22.00
2023-05-19T12:44:15.458Z,21.60
2023-05-19T12:47:06.100Z,20.80
2023-05-19T12:52:51.244Z,20.30
2023-05-19T12:55:21.091Z,21.80
2023-05-19T12:58:00.112Z,24.50
2023-05-19T13:00:31.240Z,20.70
2023-05-19T13:03:04.518Z,20.90
2023-05-19T13:05:38.065Z,23.10
2023-05-19T13:08:08.929Z,23.80
2023-05-19T13:10:39.193Z,22.40
2023-05-19T13:13:08.631Z,22.10
2023-05-19T13:15:49.095Z,25.30
2023-05-19T13:18:18.469Z,23.30
2023-05-19T13:20:50.243Z,25.30
2023-05-19T13:23:19.452Z,26.50
2023-05-19T13:25:47.877Z,24.70
2023-05-19T13:28:16.264Z,28.10
2023-05-19T13:30:45.396Z,29.60
2023-05-19T13:33:13.893Z,36.10
2023-05-19T13:35:42.307Z,26.50
2023-05-19T13:38:10.912Z,21.10
2023-05-19T13:40:40.344Z,23.90
2023-05-19T13:43:09.746Z,22.40
2023-05-19T13:45:38.764Z,22.20
2023-05-19T13:48:07.677Z,21.50
2023-05-19T13:50:36.733Z,25.40
2023-05-19T13:53:05.246Z,23.80
2023-05-19T13:55:33.774Z,21.40
2023-05-19T13:58:03.531Z,22.40
2023-05-19T14:00:32.268Z,25.70
2023-05-19T14:03:01.130Z,28.80
2023-05-19T14:05:31.114Z,25.00
2023-05-19T14:08:01.196Z,23.40
2023-05-19T14:10:29.686Z,25.40
2023-05-19T14:15:34.581Z,23.70
2023-05-19T14:18:04.749Z,28.30
2023-05-19T14:20:34.320Z,29.50
2023-05-19T14:23:03.078Z,27.60
2023-05-19T14:25:31.575Z,26.70
2023-05-19T14:28:00.064Z,25.20
2023-05-19T14:30:29.048Z,26.70
2023-05-19T14:32:57.447Z,26.60
2023-05-19T14:35:26.494Z,27.00
2023-05-19T14:37:54.915Z,27.30
2023-05-19T14:40:23.081Z,31.20
2023-05-19T14:42:51.471Z,30.80
2023-05-19T14:45:19.729Z,24.40
2023-05-19T14:47:48.262Z,24.30
2023-05-19T14:50:16.687Z,23.30
2023-05-19T14:52:44.970Z,23.70
2023-05-19T14:55:13.181Z,22.70
2023-05-19T14:57:41.599Z,23.10
2023-05-19T15:00:10.524Z,21.10
2023-05-19T15:02:38.894Z,22.40
2023-05-19T15:05:08.489Z,23.90
2023-05-19T15:07:36.823Z,24.00
2023-05-19T15:10:05.551Z,21.40
2023-05-19T15:12:33.804Z,23.80
2023-05-19T15:15:02.265Z,21.00
2023-05-19T15:17:31.006Z,20.80
2023-05-19T15:19:59.467Z,20.30
2023-05-19T15:22:27.859Z,22.90
2023-05-19T15:24:56.219Z,20.50
2023-05-19T15:27:24.912Z,21.10
2023-05-19T15:29:53.396Z,22.60
2023-05-19T15:32:21.682Z,21.00
2023-05-19T15:34:50.108Z,22.80
2023-05-19T15:37:18.350Z,22.90
2023-05-19T15:39:46.602Z,20.60
2023-05-19T15:42:14.952Z,22.10
2023-05-19T15:44:45.980Z,22.50
2023-05-19T15:47:14.286Z,21.80
2023-05-19T15:49:42.573Z,20.20
2023-05-19T15:52:10.946Z,19.30
2023-05-19T15:54:39.303Z,18.80
2023-05-19T15:57:07.759Z,20.70
2023-05-19T15:59:36.068Z,19.30
2023-05-19T16:02:04.588Z,20.30
2023-05-19T16:04:33.586Z,23.20
2023-05-19T16:07:01.933Z,23.00
2023-05-19T16:09:30.201Z,23.40
2023-05-19T16:11:58.659Z,25.20
2023-05-19T16:14:31.031Z,83.40
2023-05-19T16:17:01.825Z,55.90
2023-05-19T16:19:30.106Z,28.10
2023-05-19T16:21:58.535Z,23.00
2023-05-19T16:24:26.980Z,24.90
2023-05-19T16:26:55.288Z,30.90
2023-05-19T16:29:23.943Z,25.10
2023-05-19T16:31:52.448Z,24.30
2023-05-19T16:34:20.812Z,24.00
2023-05-19T16:36:49.084Z,29.00
2023-05-19T16:39:17.530Z,31.50
2023-05-19T16:41:45.856Z,26.90
2023-05-19T16:44:14.745Z,27.10
2023-05-19T16:46:43.178Z,27.00
2023-05-19T16:49:11.399Z,28.50
2023-05-19T16:51:39.928Z,27.40
2023-05-19T16:54:08.226Z,29.90
2023-05-19T16:56:36.544Z,32.40
2023-05-19T16:59:04.905Z,25.80
2023-05-19T17:01:33.303Z,26.60
2023-05-19T17:04:01.710Z,27.10
2023-05-19T17:06:30.083Z,28.80
2023-05-19T17:08:58.549Z,32.80
2023-05-19T17:11:27.842Z,27.50
2023-05-19T17:13:56.117Z,30.70
2023-05-19T17:16:24.624Z,29.90
2023-05-19T17:18:53.036Z,30.40
2023-05-19T17:21:21.540Z,26.90
2023-05-19T17:23:49.940Z,29.90
2023-05-19T17:26:18.418Z,30.60
2023-05-19T17:28:46.693Z,26.20
2023-05-19T17:31:15.936Z,28.70
2023-05-19T17:33:44.429Z,42.90
2023-05-19T17:36:12.670Z,79.50
2023-05-19T17:38:41.986Z,34.00
2023-05-19T17:41:10.352Z,78.70
2023-05-19T17:43:40.686Z,34.90
2023-05-19T17:46:09.668Z,31.80
2023-05-19T17:48:40.008Z,25.60
2023-05-19T17:51:08.717Z,28.10
2023-05-19T17:53:40.864Z,25.90
2023-05-19T17:56:12.116Z,25.70
2023-05-19T17:58:41.434Z,26.60
2023-05-19T18:01:10.191Z,106.60
2023-05-19T18:03:38.887Z,47.30
2023-05-19T18:06:08.105Z,35.40
2023-05-19T18:08:38.298Z,27.30
2023-05-19T18:11:08.556Z,27.90
2023-05-19T18:13:37.783Z,26.40
2023-05-19T18:16:06.561Z,27.90
2023-05-19T18:18:37.314Z,28.70
2023-05-19T18:21:06.063Z,30.00
2023-05-19T18:23:34.461Z,122.80
2023-05-19T18:26:02.821Z,210.60
2023-05-19T18:28:31.271Z,58.10
2023-05-19T18:31:00.956Z,66.00
2023-05-19T18:33:30.988Z,62.20
2023-05-19T18:35:59.935Z,45.40
2023-05-19T18:38:28.435Z,42.40
2023-05-19T18:40:56.912Z,40.20
2023-05-19T18:43:25.378Z,42.80
2023-05-19T18:45:53.779Z,43.90
2023-05-19T18:48:22.736Z,45.70
2023-05-19T18:50:51.890Z,42.40
2023-05-19T18:53:22.768Z,45.60
2023-05-19T18:55:51.275Z,40.90
2023-05-19T18:58:19.654Z,41.00
2023-05-19T19:00:48.151Z,44.20
2023-05-19T19:03:17.107Z,42.10
2023-05-19T19:05:46.128Z,43.80
2023-05-19T19:08:14.509Z,48.80
2023-05-19T19:10:42.910Z,46.00
2023-05-19T19:13:11.388Z,39.20
2023-05-19T19:15:39.837Z,38.00
2023-05-19T19:18:08.562Z,38.30
2023-05-19T19:20:37.330Z,37.70
2023-05-19T19:23:06.867Z,41.60
2023-05-19T19:25:35.495Z,39.50
2023-05-19T19:28:03.793Z,38.00
2023-05-19T19:30:32.466Z,43.20
2023-05-19T19:33:01.421Z,44.10
2023-05-19T19:35:29.903Z,40.50
2023-05-19T19:38:01.566Z,39.70
2023-05-19T19:40:30.077Z,41.00
2023-05-19T19:42:58.381Z,41.60
2023-05-19T19:45:26.736Z,40.70
2023-05-19T19:47:55.651Z,36.60
2023-05-19T19:50:24.175Z,39.40
2023-05-19T19:52:53.001Z,34.70
2023-05-19T19:55:21.689Z,38.70
2023-05-19T19:57:51.326Z,35.80
2023-05-19T20:00:19.869Z,47.70
2023-05-19T20:03:03.678Z,49.90
2023-05-19T20:05:33.365Z,48.90
2023-05-19T20:08:01.842Z,39.30
2023-05-19T20:10:30.348Z,40.80
2023-05-19T20:12:59.486Z,37.70
2023-05-19T20:15:27.850Z,37.90
2023-05-19T20:17:56.345Z,41.10
2023-05-19T20:20:24.822Z,44.20
2023-05-19T20:22:53.249Z,38.40
2023-05-19T20:25:21.612Z,42.60
2023-05-19T20:27:49.928Z,42.90
2023-05-19T20:30:18.641Z,43.40
2023-05-19T20:32:47.241Z,42.10
2023-05-19T20:35:15.977Z,41.20
2023-05-19T20:37:44.324Z,44.20
2023-05-19T20:40:12.980Z,46.90
2023-05-19T20:42:41.390Z,44.00
2023-05-19T20:45:10.123Z,48.50
2023-05-19T20:47:38.763Z,48.20
2023-05-19T20:50:07.589Z,51.80
2023-05-19T20:52:36.093Z,48.40
2023-05-19T20:55:04.736Z,49.40
2023-05-19T20:57:33.202Z,47.30
2023-05-19T21:00:01.703Z,54.10
2023-05-19T21:02:30.154Z,48.70
2023-05-19T21:04:58.568Z,50.60
2023-05-19T21:07:26.995Z,48.50
2023-05-19T21:09:56.611Z,55.60
2023-05-19T21:12:25.437Z,56.70
2023-05-19T21:14:53.778Z,61.90
2023-05-19T21:17:22.204Z,62.00
2023-05-19T21:19:50.858Z,59.80
2023-05-19T21:22:19.270Z,65.90
2023-05-19T21:24:47.779Z,56.10
2023-05-19T21:27:16.109Z,55.20
2023-05-19T21:29:44.616Z,50.30
2023-05-19T21:32:12.989Z,47.40
2023-05-19T21:34:41.356Z,41.80
2023-05-19T21:37:09.676Z,42.40
2023-05-19T21:39:38.053Z,41.00
2023-05-19T21:42:06.476Z,42.20
2023-05-19T21:44:34.952Z,42.90
2023-05-19T21:47:03.401Z,41.30
2023-05-19T21:49:31.783Z,43.70
2023-05-19T21:52:00.140Z,43.60
2023-05-19T21:54:28.446Z,40.70
2023-05-19T21:56:56.866Z,41.10
2023-05-19T21:59:26.352Z,41.10
2023-05-19T22:01:54.736Z,39.00
2023-05-19T22:04:23.294Z,41.30
2023-05-19T22:06:51.690Z,39.80
2023-05-19T22:09:19.957Z,40.70
2023-05-19T22:11:48.143Z,39.10
2023-05-19T22:14:16.415Z,37.20
2023-05-19T22:16:44.782Z,39.50
2023-05-19T22:19:13.533Z,41.50
2023-05-19T22:21:42.033Z,40.20
2023-05-19T22:24:10.284Z,42.40
2023-05-19T22:26:42.646Z,39.30
2023-05-19T22:29:15.187Z,40.70
2023-05-19T22:31:43.480Z,39.60
2023-05-19T22:34:15.589Z,43.30
2023-05-19T22:36:46.006Z,41.50
2023-05-19T22:39:14.420Z,37.70
2023-05-19T22:41:42.830Z,41.90
2023-05-19T22:44:15.493Z,40.30
2023-05-19T22:46:44.718Z,40.90
2023-05-19T22:49:13.055Z,48.50
2023-05-19T22:51:41.368Z,43.70
2023-05-19T22:54:10.665Z,44.70
2023-05-19T22:56:38.904Z,43.30
2023-05-19T22:59:07.987Z,43.60
2023-05-19T23:01:36.342Z,42.20
2023-05-19T23:04:05.028Z,42.60
2023-05-19T23:06:33.405Z,40.90
2023-05-19T23:09:03.503Z,43.50
2023-05-19T23:11:31.876Z,50.30
2023-05-19T23:14:00.183Z,47.40
2023-05-19T23:16:28.514Z,55.60
2023-05-19T23:18:56.920Z,51.20
2023-05-19T23:21:25.411Z,58.20
2023-05-19T23:23:53.854Z,65.30
2023-05-19T23:26:22.363Z,67.70
2023-05-19T23:28:50.826Z,67.60
2023-05-19T23:31:19.210Z,75.70
2023-05-19T23:33:47.586Z,82.80
2023-05-19T23:36:16.192Z,74.10
2023-05-19T23:38:44.512Z,70.90
2023-05-19T23:41:12.874Z,67.30
2023-05-19T23:43:41.210Z,66.50
2023-05-19T23:46:09.581Z,63.60
2023-05-19T23:48:37.999Z,62.40
2023-05-19T23:51:06.366Z,66.70
2023-05-19T23:53:34.697Z,68.50
2023-05-19T23:56:02.979Z,69.70
2023-05-19T23:58:31.461Z,65.40
